createdAt,value
2023-04-22T00:02:15.609Z,9.50
2023-04-22T00:04:45.738Z,9.40
2023-04-22T00:07:16.425Z,9.40
2023-04-22T00:09:43.541Z,9.40
2023-04-22T00:12:10.609Z,9.30
2023-04-22T00:14:37.702Z,9.30
2023-04-22T00:17:04.725Z,9.30
2023-04-22T00:19:31.563Z,9.30
2023-04-22T00:21:58.466Z,9.30
2023-04-22T00:24:25.406Z,9.30
2023-04-22T00:26:52.320Z,9.30
2023-04-22T00:29:19.157Z,9.30
2023-04-22T00:31:46.164Z,9.30
2023-04-22T00:34:13.232Z,9.20
2023-04-22T00:36:40.114Z,9.20
2023-04-22T00:39:06.942Z,9.10
2023-04-22T00:41:34.320Z,9.20
2023-04-22T00:44:01.506Z,9.20
2023-04-22T00:46:28.933Z,9.20
2023-04-22T00:48:56.448Z,9.20
2023-04-22T00:51:23.342Z,9.10
2023-04-22T00:53:50.207Z,9.20
2023-04-22T00:56:17.708Z,9.20
2023-04-22T00:58:44.617Z,9.20
2023-04-22T01:01:11.729Z,9.20
2023-04-22T01:03:40.604Z,9.20
2023-04-22T01:06:07.791Z,9.20
2023-04-22T01:08:35.001Z,9.20
2023-04-22T01:11:02.978Z,9.20
2023-04-22T01:13:29.821Z,9.20
2023-04-22T01:15:56.795Z,9.20
2023-04-22T01:18:23.769Z,9.30
2023-04-22T01:20:50.646Z,9.20
2023-04-22T01:23:22.085Z,9.30
2023-04-22T01:25:50.057Z,9.30
2023-04-22T01:28:17.775Z,9.30
2023-04-22T01:30:44.774Z,9.20
2023-04-22T01:33:12.286Z,9.20
2023-04-22T01:35:39.242Z,9.10
2023-04-22T01:38:08.467Z,9.10
2023-04-22T01:40:35.450Z,9.10
2023-04-22T01:43:03.209Z,9.10
2023-04-22T01:45:30.204Z,9.10
2023-04-22T01:47:57.461Z,9.10
2023-04-22T01:50:24.660Z,9.10
2023-04-22T01:52:52.242Z,9.00
2023-04-22T01:55:19.204Z,9.10
2023-04-22T01:57:46.025Z,9.10
2023-04-22T02:00:13.347Z,9.10
2023-04-22T02:02:40.509Z,9.10
2023-04-22T02:05:08.396Z,9.10
2023-04-22T02:07:35.532Z,9.10
2023-04-22T02:10:06.287Z,9.00
2023-04-22T02:12:33.314Z,9.00
2023-04-22T02:15:00.253Z,8.90
2023-04-22T02:17:27.375Z,8.90
2023-04-22T02:19:54.503Z,8.90
2023-04-22T02:22:23.439Z,9.00
2023-04-22T02:24:50.364Z,9.00
2023-04-22T02:27:17.370Z,9.00
2023-04-22T02:29:44.234Z,9.00
2023-04-22T02:32:11.103Z,9.00
2023-04-22T02:34:38.098Z,9.00
2023-04-22T02:37:05.051Z,9.00
2023-04-22T02:39:31.992Z,9.00
2023-04-22T02:41:58.820Z,9.00
2023-04-22T02:44:25.737Z,9.00
2023-04-22T02:46:52.721Z,9.00
2023-04-22T02:49:19.681Z,9.00
2023-04-22T02:51:46.618Z,9.00
2023-04-22T02:54:13.509Z,9.10
2023-04-22T02:56:40.373Z,9.00
2023-04-22T02:59:07.256Z,9.10
2023-04-22T03:01:34.213Z,9.10
2023-04-22T03:04:01.337Z,9.10
2023-04-22T03:06:28.314Z,9.10
2023-04-22T03:08:55.262Z,9.10
2023-04-22T03:11:22.198Z,9.10
2023-04-22T03:13:49.070Z,9.10
2023-04-22T03:16:17.670Z,9.10
2023-04-22T03:18:44.562Z,9.10
2023-04-22T03:21:11.435Z,9.10
2023-04-22T03:23:38.353Z,9.10
2023-04-22T03:26:05.323Z,9.20
2023-04-22T03:28:32.451Z,9.10
2023-04-22T03:30:59.373Z,9.10
2023-04-22T03:33:26.291Z,9.20
2023-04-22T03:35:53.120Z,9.20
2023-04-22T03:38:19.971Z,9.20
2023-04-22T03:40:46.812Z,9.20
2023-04-22T03:43:13.711Z,9.20
2023-04-22T03:45:40.687Z,9.20
2023-04-22T03:48:07.568Z,9.20
2023-04-22T03:50:34.457Z,9.10
2023-04-22T03:53:01.333Z,9.10
2023-04-22T03:55:28.258Z,9.10
2023-04-22T03:57:55.139Z,9.10
2023-04-22T04:00:22.111Z,9.20
2023-04-22T04:02:49.138Z,9.10
2023-04-22T04:05:16.488Z,9.00
2023-04-22T04:07:43.567Z,9.00
2023-04-22T04:10:11.088Z,9.10
2023-04-22T04:12:37.971Z,9.10
2023-04-22T04:15:05.348Z,9.10
2023-04-22T04:17:32.243Z,9.10
2023-04-22T04:19:59.249Z,9.10
2023-04-22T04:22:26.114Z,9.10
2023-04-22T04:24:52.947Z,9.20
2023-04-22T04:27:19.831Z,9.30
2023-04-22T04:29:46.655Z,9.30
2023-04-22T04:32:13.546Z,9.30
2023-04-22T04:34:40.435Z,9.30
2023-04-22T04:37:07.376Z,9.20
2023-04-22T04:39:34.208Z,9.30
2023-04-22T04:42:01.073Z,9.40
2023-04-22T04:44:27.909Z,9.40
2023-04-22T04:46:55.022Z,9.50
2023-04-22T04:49:22.049Z,9.50
2023-04-22T04:51:49.069Z,9.50
2023-04-22T04:54:16.334Z,9.50
2023-04-22T04:56:43.341Z,9.60
2023-04-22T04:59:10.242Z,9.60
2023-04-22T05:01:37.160Z,9.60
2023-04-22T05:04:04.281Z,9.70
2023-04-22T05:06:31.338Z,9.70
2023-04-22T05:08:58.535Z,9.70
2023-04-22T05:11:25.815Z,9.60
2023-04-22T05:13:52.729Z,9.70
2023-04-22T05:16:19.694Z,9.70
2023-04-22T05:18:47.215Z,9.70
2023-04-22T05:21:14.092Z,9.70
2023-04-22T05:23:40.943Z,9.80
2023-04-22T05:26:07.818Z,9.80
2023-04-22T05:28:34.681Z,9.80
2023-04-22T05:31:01.535Z,9.80
2023-04-22T05:33:28.464Z,9.80
2023-04-22T05:35:55.769Z,9.90
2023-04-22T05:38:22.720Z,10.00
2023-04-22T05:40:49.563Z,10.00
2023-04-22T05:43:16.542Z,10.10
2023-04-22T05:45:43.621Z,10.20
2023-04-22T05:48:10.521Z,10.20
2023-04-22T05:50:37.402Z,10.30
2023-04-22T05:53:04.259Z,10.30
2023-04-22T05:55:31.583Z,10.40
2023-04-22T05:57:58.502Z,10.50
2023-04-22T06:00:25.448Z,10.60
2023-04-22T06:02:52.444Z,10.60
2023-04-22T06:05:19.515Z,10.70
2023-04-22T06:07:46.556Z,10.70
2023-04-22T06:10:13.399Z,10.80
2023-04-22T06:12:40.249Z,10.90
2023-04-22T06:15:07.599Z,11.00
2023-04-22T06:17:34.445Z,11.00
2023-04-22T06:20:01.348Z,11.10
2023-04-22T06:22:28.192Z,11.30
2023-04-22T06:24:55.099Z,11.20
2023-04-22T06:27:21.982Z,11.30
2023-04-22T06:29:48.828Z,11.40
2023-04-22T06:32:15.729Z,11.50
2023-04-22T06:34:42.630Z,11.50
2023-04-22T06:37:09.518Z,11.70
2023-04-22T06:39:36.585Z,11.80
2023-04-22T06:42:03.637Z,11.90
2023-04-22T06:44:30.510Z,12.10
2023-04-22T06:46:58.292Z,12.20
2023-04-22T06:49:25.364Z,12.30
2023-04-22T06:51:52.352Z,12.40
2023-04-22T06:54:19.257Z,12.50
2023-04-22T06:56:46.189Z,12.50
2023-04-22T06:59:13.064Z,12.70
2023-04-22T07:01:39.948Z,12.80
2023-04-22T07:04:06.904Z,12.90
2023-04-22T07:06:33.771Z,12.90
2023-04-22T07:09:00.711Z,13.10
2023-04-22T07:11:27.600Z,13.00
2023-04-22T07:13:54.467Z,13.20
2023-04-22T07:16:21.383Z,13.20
2023-04-22T07:18:48.371Z,13.40
2023-04-22T07:21:15.370Z,13.40
2023-04-22T07:23:42.298Z,13.60
2023-04-22T07:26:09.230Z,13.60
2023-04-22T07:28:36.187Z,13.80
2023-04-22T07:31:03.282Z,13.70
2023-04-22T07:33:30.162Z,13.80
2023-04-22T07:35:57.104Z,13.90
2023-04-22T07:38:24.591Z,14.00
2023-04-22T07:40:51.474Z,14.10
2023-04-22T07:43:18.319Z,14.30
2023-04-22T07:45:45.401Z,14.50
2023-04-22T07:48:12.322Z,14.70
2023-04-22T07:50:39.761Z,14.60
2023-04-22T07:53:06.665Z,14.80
2023-04-22T07:55:33.958Z,15.00
2023-04-22T07:58:00.861Z,15.20
2023-04-22T08:00:27.835Z,15.50
2023-04-22T08:02:54.848Z,15.50
2023-04-22T08:05:21.917Z,15.70
2023-04-22T08:07:48.918Z,15.90
2023-04-22T08:10:15.768Z,16.10
2023-04-22T08:12:42.691Z,16.00
2023-04-22T08:15:09.988Z,16.00
2023-04-22T08:17:37.037Z,16.20
2023-04-22T08:20:06.593Z,16.30
2023-04-22T08:22:34.758Z,16.50
2023-04-22T08:25:01.696Z,16.70
2023-04-22T08:27:28.581Z,16.90
2023-04-22T08:29:55.434Z,17.10
2023-04-22T08:32:22.313Z,17.30
2023-04-22T08:34:51.885Z,17.80
2023-04-22T08:37:20.986Z,18.50
2023-04-22T08:39:47.869Z,19.40
2023-04-22T08:42:15.884Z,20.30
2023-04-22T08:44:43.351Z,21.10
2023-04-22T08:47:11.368Z,20.60
2023-04-22T08:49:38.886Z,21.70
2023-04-22T08:52:06.010Z,21.30
2023-04-22T08:54:32.901Z,22.30
2023-04-22T08:57:00.767Z,22.30
2023-04-22T08:59:28.022Z,21.90
2023-04-22T09:01:56.693Z,21.50
2023-04-22T09:04:24.644Z,22.20
2023-04-22T09:06:51.516Z,23.10
2023-04-22T09:09:20.165Z,22.30
2023-04-22T09:11:47.076Z,21.50
2023-04-22T09:14:13.942Z,22.10
2023-04-22T09:16:42.253Z,21.20
2023-04-22T09:19:12.600Z,21.60
2023-04-22T09:21:41.043Z,21.60
2023-04-22T09:24:09.252Z,21.20
2023-04-22T09:26:40.752Z,21.40
2023-04-22T09:29:08.120Z,21.70
2023-04-22T09:31:35.734Z,21.30
2023-04-22T09:34:02.680Z,21.60
2023-04-22T09:36:30.697Z,21.00
2023-04-22T09:39:23.611Z,20.90
2023-04-22T09:41:55.095Z,20.90
2023-04-22T09:44:22.032Z,20.60
2023-04-22T09:46:50.232Z,20.20
2023-04-22T09:49:17.566Z,20.80
2023-04-22T09:51:44.494Z,20.80
2023-04-22T09:54:11.966Z,20.90
2023-04-22T09:56:51.604Z,21.50
2023-04-22T09:59:23.251Z,21.50
2023-04-22T10:01:53.033Z,21.10
2023-04-22T10:04:20.339Z,21.60
2023-04-22T10:06:50.573Z,21.00
2023-04-22T10:09:21.995Z,21.30
2023-04-22T10:11:50.815Z,21.00
2023-04-22T10:14:17.746Z,21.00
2023-04-22T10:16:47.210Z,21.00
2023-04-22T10:19:24.141Z,21.20
2023-04-22T10:21:57.423Z,21.20
2023-04-22T10:24:27.606Z,21.30
2023-04-22T10:26:59.097Z,21.10
2023-04-22T10:29:36.115Z,21.70
2023-04-22T10:32:18.175Z,21.70
2023-04-22T10:34:47.799Z,21.30
2023-04-22T10:37:19.014Z,21.40
2023-04-22T10:40:14.396Z,22.30
2023-04-22T10:42:42.622Z,22.60
2023-04-22T10:45:13.871Z,22.30
2023-04-22T10:47:41.184Z,22.00
2023-04-22T10:50:26.972Z,22.30
2023-04-22T10:52:58.205Z,22.50
2023-04-22T10:55:26.071Z,22.40
2023-04-22T10:57:53.834Z,22.50
2023-04-22T11:00:41.773Z,22.60
2023-04-22T11:03:18.132Z,23.00
2023-04-22T11:05:45.403Z,23.50
2023-04-22T11:08:15.013Z,23.40
2023-04-22T11:10:44.873Z,24.20
2023-04-22T11:13:16.987Z,24.00
2023-04-22T11:15:51.863Z,23.90
2023-04-22T11:18:24.130Z,24.10
2023-04-22T11:20:52.137Z,23.10
2023-04-22T11:23:26.522Z,23.40
2023-04-22T11:26:01.753Z,23.70
2023-04-22T11:28:29.340Z,24.00
2023-04-22T11:31:07.464Z,23.70
2023-04-22T11:33:35.020Z,23.30
2023-04-22T11:36:02.065Z,23.10
2023-04-22T11:38:29.131Z,22.90
2023-04-22T11:40:56.840Z,23.60
2023-04-22T11:43:24.153Z,23.80
2023-04-22T11:45:51.104Z,23.70
2023-04-22T11:48:18.037Z,24.10
2023-04-22T11:50:44.926Z,23.60
2023-04-22T11:53:20.094Z,23.20
2023-04-22T11:55:49.980Z,23.80
2023-04-22T11:58:24.769Z,24.40
2023-04-22T12:00:53.130Z,24.50
2023-04-22T12:03:25.283Z,24.10
2023-04-22T12:05:58.669Z,24.00
2023-04-22T12:08:32.712Z,24.20
2023-04-22T12:11:02.191Z,24.50
2023-04-22T12:13:31.243Z,24.20
2023-04-22T12:16:00.844Z,24.40
2023-04-22T12:18:35.571Z,24.50
2023-04-22T12:21:12.122Z,25.20
2023-04-22T12:23:49.177Z,24.80
2023-04-22T12:26:17.812Z,24.70
2023-04-22T12:28:45.731Z,24.70
2023-04-22T12:31:14.323Z,24.50
2023-04-22T12:33:41.644Z,24.60
2023-04-22T12:36:08.662Z,25.70
2023-04-22T12:38:35.788Z,25.00
2023-04-22T12:41:04.134Z,24.70
2023-04-22T12:43:31.464Z,25.20
2023-04-22T12:45:59.403Z,25.70
2023-04-22T12:48:26.338Z,25.20
2023-04-22T12:50:53.210Z,24.30
2023-04-22T12:53:21.858Z,25.80
2023-04-22T12:55:48.873Z,25.50
2023-04-22T12:58:15.965Z,25.90
2023-04-22T13:00:42.805Z,25.40
2023-04-22T13:03:09.738Z,25.80
2023-04-22T13:05:37.433Z,25.20
2023-04-22T13:08:07.541Z,25.40
2023-04-22T13:10:35.549Z,25.20
2023-04-22T13:13:15.899Z,25.30
2023-04-22T13:15:45.584Z,24.60
2023-04-22T13:18:12.511Z,24.40
2023-04-22T13:20:39.436Z,25.10
2023-04-22T13:23:06.271Z,24.50
2023-04-22T13:25:33.287Z,25.30
2023-04-22T13:28:00.230Z,24.50
2023-04-22T13:30:27.183Z,24.70
2023-04-22T13:32:54.103Z,24.40
2023-04-22T13:35:21.005Z,24.80
2023-04-22T13:37:47.862Z,25.20
2023-04-22T13:40:14.810Z,25.30
2023-04-22T13:42:41.662Z,25.20
2023-04-22T13:45:12.064Z,26.20
2023-04-22T13:47:38.935Z,25.60
2023-04-22T13:50:06.474Z,25.10
2023-04-22T13:52:33.412Z,25.20
2023-04-22T13:55:00.293Z,25.60
2023-04-22T13:57:27.209Z,25.20
2023-04-22T13:59:54.147Z,25.80
2023-04-22T14:02:21.094Z,25.90
2023-04-22T14:04:48.162Z,25.80
2023-04-22T14:07:15.110Z,25.10
2023-04-22T14:09:42.291Z,25.50
2023-04-22T14:12:10.694Z,26.00
2023-04-22T14:14:37.810Z,25.50
2023-04-22T14:17:04.728Z,25.80
2023-04-22T14:19:31.662Z,24.90
2023-04-22T14:21:58.597Z,24.70
2023-04-22T14:24:25.622Z,24.70
2023-04-22T14:26:52.912Z,25.10
2023-04-22T14:29:20.128Z,24.90
2023-04-22T14:31:47.149Z,24.40
2023-04-22T14:34:14.074Z,24.50
2023-04-22T14:36:41.012Z,25.20
2023-04-22T14:39:07.873Z,25.80
2023-04-22T14:41:35.069Z,26.00
2023-04-22T14:44:02.037Z,26.00
2023-04-22T14:46:29.062Z,25.30
2023-04-22T14:48:55.975Z,25.90
2023-04-22T14:51:22.885Z,26.10
2023-04-22T14:53:49.883Z,25.30
2023-04-22T14:56:16.876Z,24.50
2023-04-22T14:58:43.752Z,24.90
2023-04-22T15:01:10.752Z,24.30
2023-04-22T15:03:37.856Z,24.60
2023-04-22T15:06:05.056Z,24.00
2023-04-22T15:08:31.960Z,24.30
2023-04-22T15:10:58.829Z,24.10
2023-04-22T15:13:25.904Z,24.00
2023-04-22T15:15:52.840Z,23.50
2023-04-22T15:18:19.864Z,23.20
2023-04-22T15:20:46.716Z,23.60
2023-04-22T15:23:13.605Z,24.10
2023-04-22T15:25:40.491Z,25.10
2023-04-22T15:28:07.529Z,25.10
2023-04-22T15:30:34.385Z,24.60
2023-04-22T15:33:01.307Z,24.20
2023-04-22T15:35:28.193Z,24.70
2023-04-22T15:37:55.032Z,24.30
2023-04-22T15:40:21.925Z,24.10
2023-04-22T15:42:48.780Z,24.10
2023-04-22T15:45:15.729Z,24.50
2023-04-22T15:47:42.755Z,24.60
2023-04-22T15:50:10.738Z,24.40
2023-04-22T15:52:38.465Z,24.60
2023-04-22T15:55:06.679Z,24.90
2023-04-22T15:57:33.591Z,24.90
2023-04-22T16:00:11.067Z,24.90
2023-04-22T16:02:40.164Z,25.70
2023-04-22T16:05:07.543Z,26.10
2023-04-22T16:07:34.633Z,25.30
2023-04-22T16:10:01.689Z,25.90
2023-04-22T16:12:28.682Z,25.80
2023-04-22T16:14:55.545Z,25.40
2023-04-22T16:17:22.525Z,25.40
2023-04-22T16:19:49.523Z,25.60
2023-04-22T16:22:16.445Z,25.30
2023-04-22T16:24:44.334Z,25.00
2023-04-22T16:27:11.463Z,24.60
2023-04-22T16:29:38.560Z,24.30
2023-04-22T16:32:05.785Z,24.40
2023-04-22T16:34:32.903Z,23.90
2023-04-22T16:36:59.806Z,23.40
2023-04-22T16:39:26.724Z,23.10
2023-04-22T16:41:54.210Z,23.10
2023-04-22T16:44:21.230Z,22.70
2023-04-22T16:46:48.143Z,22.40
2023-04-22T16:49:15.026Z,22.30
2023-04-22T16:51:41.897Z,22.10
2023-04-22T16:54:08.819Z,22.10
2023-04-22T16:56:35.734Z,21.90
2023-04-22T16:59:02.608Z,21.80
2023-04-22T17:01:29.668Z,21.80
2023-04-22T17:03:56.915Z,22.00
2023-04-22T17:06:23.961Z,21.90
2023-04-22T17:08:50.940Z,21.90
2023-04-22T17:11:17.924Z,21.90
2023-04-22T17:13:44.788Z,21.80
2023-04-22T17:16:11.668Z,21.90
2023-04-22T17:18:38.519Z,21.80
2023-04-22T17:21:05.425Z,22.30
2023-04-22T17:23:32.283Z,22.50
2023-04-22T17:25:59.168Z,22.70
2023-04-22T17:28:26.159Z,22.20
2023-04-22T17:30:53.169Z,22.10
2023-04-22T17:33:20.064Z,21.70
2023-04-22T17:35:46.971Z,21.50
2023-04-22T17:38:13.845Z,21.10
2023-04-22T17:40:40.935Z,21.10
2023-04-22T17:43:07.907Z,21.00
2023-04-22T17:45:34.865Z,20.80
2023-04-22T17:48:01.915Z,20.50
2023-04-22T17:50:28.882Z,20.40
2023-04-22T17:52:55.825Z,20.30
2023-04-22T17:55:22.724Z,20.20
2023-04-22T17:57:49.609Z,20.30
2023-04-22T18:00:16.963Z,20.00
2023-04-22T18:02:44.166Z,19.90
2023-04-22T18:05:11.181Z,19.80
2023-04-22T18:07:38.083Z,19.70
2023-04-22T18:10:05.472Z,19.60
2023-04-22T18:12:32.420Z,19.60
2023-04-22T18:14:59.350Z,19.40
2023-04-22T18:17:26.247Z,19.30
2023-04-22T18:19:55.967Z,19.30
2023-04-22T18:22:27.017Z,19.20
2023-04-22T18:24:54.290Z,19.10
2023-04-22T18:27:21.192Z,19.00
2023-04-22T18:29:48.202Z,18.90
2023-04-22T18:32:15.114Z,18.90
2023-04-22T18:34:42.574Z,18.80
2023-04-22T18:37:09.719Z,18.70
2023-04-22T18:39:38.388Z,18.60
2023-04-22T18:42:06.417Z,18.60
2023-04-22T18:44:33.275Z,18.50
2023-04-22T18:47:00.119Z,18.50
2023-04-22T18:49:26.965Z,18.40
2023-04-22T18:51:54.092Z,18.30
2023-04-22T18:54:21.017Z,18.30
2023-04-22T18:56:47.857Z,18.20
2023-04-22T18:59:14.705Z,18.10
2023-04-22T19:01:41.644Z,18.10
2023-04-22T19:04:08.748Z,18.00
2023-04-22T19:06:35.705Z,17.90
2023-04-22T19:09:02.786Z,17.90
2023-04-22T19:11:29.714Z,17.80
2023-04-22T19:13:57.044Z,17.80
2023-04-22T19:16:26.239Z,17.70
2023-04-22T19:18:53.429Z,17.60
2023-04-22T19:21:20.488Z,17.60
2023-04-22T19:23:47.308Z,17.50
2023-04-22T19:26:14.259Z,17.50
2023-04-22T19:28:41.106Z,17.40
2023-04-22T19:31:07.999Z,17.40
2023-04-22T19:33:34.998Z,17.40
2023-04-22T19:36:01.917Z,17.30
2023-04-22T19:38:28.813Z,17.30
2023-04-22T19:40:55.667Z,17.30
2023-04-22T19:43:22.607Z,17.30
2023-04-22T19:45:49.452Z,17.10
2023-04-22T19:48:16.537Z,17.20
2023-04-22T19:50:44.068Z,17.10
2023-04-22T19:53:11.192Z,17.10
2023-04-22T19:55:38.716Z,17.00
2023-04-22T19:58:06.134Z,17.00
2023-04-22T20:00:33.196Z,17.00
2023-04-22T20:03:00.476Z,17.00
2023-04-22T20:05:27.821Z,17.00
2023-04-22T20:07:57.328Z,17.00
2023-04-22T20:10:25.129Z,16.90
2023-04-22T20:12:52.335Z,17.00
2023-04-22T20:15:19.453Z,17.00
2023-04-22T20:17:46.800Z,17.00
2023-04-22T20:20:14.190Z,16.90
2023-04-22T20:22:42.481Z,16.90
2023-04-22T20:25:13.207Z,16.90
2023-04-22T20:27:40.248Z,16.80
2023-04-22T20:30:08.043Z,16.80
2023-04-22T20:32:35.008Z,16.80
2023-04-22T20:35:02.283Z,16.80
2023-04-22T20:37:29.318Z,16.80
2023-04-22T20:39:57.108Z,16.80
2023-04-22T20:42:24.319Z,16.80
2023-04-22T20:44:51.334Z,16.80
2023-04-22T20:47:18.225Z,16.80
2023-04-22T20:49:45.157Z,16.70
2023-04-22T20:52:12.526Z,16.70
2023-04-22T20:54:40.146Z,16.70
2023-04-22T20:57:07.514Z,16.70
2023-04-22T20:59:35.196Z,16.70
2023-04-22T21:02:03.562Z,16.70
2023-04-22T21:04:32.187Z,16.70
2023-04-22T21:07:01.524Z,16.60
2023-04-22T21:09:28.926Z,16.60
2023-04-22T21:11:56.388Z,16.60
2023-04-22T21:14:23.896Z,16.60
2023-04-22T21:17:09.926Z,16.60
2023-04-22T21:19:38.672Z,16.60
2023-04-22T21:22:06.499Z,16.60
2023-04-22T21:24:34.212Z,16.50
2023-04-22T21:27:01.355Z,16.40
2023-04-22T21:29:28.980Z,16.40
2023-04-22T21:32:07.966Z,16.50
2023-04-22T21:34:35.911Z,16.50
2023-04-22T21:37:02.963Z,16.40
2023-04-22T21:39:30.018Z,16.40
2023-04-22T21:41:56.984Z,16.40
2023-04-22T21:44:24.040Z,16.40
2023-04-22T21:46:50.905Z,16.30
2023-04-22T21:49:17.794Z,16.30
2023-04-22T21:51:44.732Z,16.20
2023-04-22T21:54:11.655Z,16.30
2023-04-22T21:56:38.567Z,16.40
2023-04-22T21:59:05.485Z,16.40
2023-04-22T22:01:32.394Z,16.30
2023-04-22T22:03:59.353Z,16.30
2023-04-22T22:06:26.376Z,16.30
2023-04-22T22:08:53.500Z,16.20
2023-04-22T22:11:30.439Z,16.20
2023-04-22T22:13:58.623Z,16.20
2023-04-22T22:16:25.984Z,16.10
2023-04-22T22:18:53.058Z,16.00
2023-04-22T22:21:19.920Z,16.10
2023-04-22T22:23:46.872Z,16.00
2023-04-22T22:26:14.110Z,16.10
2023-04-22T22:28:40.987Z,16.10
2023-04-22T22:31:07.895Z,16.10
2023-04-22T22:33:34.809Z,16.10
2023-04-22T22:36:01.729Z,16.10
2023-04-22T22:38:28.609Z,16.10
2023-04-22T22:40:55.704Z,16.00
2023-04-22T22:43:22.532Z,16.00
2023-04-22T22:45:49.509Z,16.00
2023-04-22T22:48:16.467Z,16.00
2023-04-22T22:50:43.906Z,16.00
2023-04-22T22:53:10.786Z,15.90
2023-04-22T22:55:37.704Z,15.90
2023-04-22T22:58:04.597Z,15.90
2023-04-22T23:00:31.467Z,15.80
2023-04-22T23:02:58.565Z,15.80
2023-04-22T23:05:25.576Z,15.80
2023-04-22T23:07:52.480Z,15.70
2023-04-22T23:10:19.400Z,15.70
2023-04-22T23:12:46.256Z,15.50
2023-04-22T23:15:13.146Z,15.50
2023-04-22T23:17:40.136Z,15.40
2023-04-22T23:20:08.088Z,15.40
2023-04-22T23:22:37.829Z,15.40
2023-04-22T23:25:05.665Z,15.40
2023-04-22T23:27:32.846Z,15.30
2023-04-22T23:30:00.056Z,15.30
2023-04-22T23:32:27.974Z,15.20
2023-04-22T23:34:56.893Z,15.10
2023-04-22T23:37:28.052Z,15.00
2023-04-22T23:39:55.202Z,15.00
2023-04-22T23:42:22.055Z,14.90
2023-04-22T23:44:48.900Z,14.80
2023-04-22T23:47:15.825Z,14.80
2023-04-22T23:49:43.537Z,14.70
2023-04-22T23:52:10.617Z,14.70
2023-04-22T23:54:37.757Z,14.80
2023-04-22T23:57:04.953Z,14.80
2023-04-22T23:59:32.129Z,14.80
